Time;durP1;ratioP1;P1;durP2;ratioP2;P2;SDS_P1;SDS_P2;PMS_P1;PMS_P2;Temp;Humidity;BMP_temperature;BMP_pressure;BME280_temperature;BME280_humidity;BME280_pressure;Samples;Min_cycle;Max_cycle;Signal;HPM_P1;HPM_P2
2023/08/28 00:03:51;;;;;;;18.00;12.35;;;;;;;-147.65;100.00;57646.63;10439158;28;20503;-79
2023/08/28 00:08:51;;;;;;;18.85;12.70;;;;;;;-147.65;100.00;57646.63;10432607;28;20095;-79
2023/08/28 00:13:52;;;;;;;22.33;12.45;;;;;;;-147.65;100.00;57646.63;10431785;28;20074;-79
2023/08/28 00:18:52;;;;;;;21.88;13.75;;;;;;;-147.65;100.00;57646.63;10463075;28;20069;-79
2023/08/28 00:23:53;;;;;;;17.15;13.32;;;;;;;-147.65;100.00;57646.63;10442100;28;20147;-80
2023/08/28 00:28:54;;;;;;;17.77;11.90;;;;;;;-147.65;100.00;57646.63;10422363;28;20038;-79
2023/08/28 00:33:55;;;;;;;16.00;10.30;;;;;;;-147.65;100.00;57646.63;10438191;28;20488;-80
2023/08/28 00:38:55;;;;;;;16.38;11.02;;;;;;;-147.65;100.00;57646.63;10430841;28;20041;-80
2023/08/28 00:43:56;;;;;;;20.42;12.52;;;;;;;-147.65;100.00;57646.63;10442356;28;20036;-80
2023/08/28 00:48:56;;;;;;;19.33;10.75;;;;;;;-147.65;100.00;57646.63;10416327;28;20059;-80
2023/08/28 00:53:57;;;;;;;19.35;13.20;;;;;;;-147.65;100.00;57646.63;10418168;28;20044;-80
2023/08/28 00:58:57;;;;;;;22.33;12.43;;;;;;;-147.65;100.00;57646.63;10431141;28;20481;-80
2023/08/28 01:03:58;;;;;;;19.77;12.13;;;;;;;-147.65;100.00;57646.63;10435659;28;20051;-80
2023/08/28 01:09:26;;;;;;;19.05;13.45;;;;;;;-147.65;100.00;57646.63;10426864;28;20477;-80
2023/08/28 01:14:30;;;;;;;19.30;12.15;;;;;;;-147.65;100.00;57646.63;10434306;28;20071;-81
2023/08/28 01:19:37;;;;;;;19.80;13.45;;;;;;;-147.65;100.00;57646.63;10417083;28;20080;-81
2023/08/28 01:24:42;;;;;;;17.90;13.77;;;;;;;-147.65;100.00;57646.63;10419894;28;20045;-81
2023/08/28 01:29:43;;;;;;;21.40;14.20;;;;;;;-147.65;100.00;57646.63;10410705;28;20040;-80
2023/08/28 01:34:44;;;;;;;18.88;13.80;;;;;;;-147.65;100.00;57646.63;10432877;28;20393;-81
2023/08/28 01:39:46;;;;;;;15.98;11.50;;;;;;;-147.65;100.00;57646.63;10418698;28;20040;-81
2023/08/28 01:44:46;;;;;;;19.95;13.45;;;;;;;-147.65;100.00;57646.63;10407015;28;20060;-81
2023/08/28 01:49:47;;;;;;;23.25;13.75;;;;;;;-147.65;100.00;57646.63;10422822;28;20060;-81
2023/08/28 01:54:47;;;;;;;20.60;15.73;;;;;;;-147.65;100.00;57646.63;10430241;28;20049;-81
2023/08/28 01:59:48;;;;;;;23.27;14.43;;;;;;;-147.65;100.00;57646.63;10434795;28;20044;-80
2023/08/28 02:04:48;;;;;;;19.38;13.32;;;;;;;-147.65;100.00;57646.63;10430234;28;20041;-81
2023/08/28 02:09:49;;;;;;;21.52;14.55;;;;;;;-147.65;100.00;57646.63;10441336;28;20040;-80
2023/08/28 02:14:50;;;;;;;23.58;15.52;;;;;;;-147.65;100.00;57646.63;10430290;28;20131;-81
2023/08/28 02:19:50;;;;;;;22.15;14.75;;;;;;;-147.65;100.00;57646.63;10427219;28;20044;-80
2023/08/28 02:24:51;;;;;;;22.52;16.05;;;;;;;-147.65;100.00;57646.63;10419856;28;20044;-80
2023/08/28 02:29:51;;;;;;;20.70;15.45;;;;;;;-147.65;100.00;57646.63;10442555;28;20127;-81
2023/08/28 02:34:52;;;;;;;22.77;16.35;;;;;;;-147.65;100.00;57646.63;10410464;28;20041;-80
2023/08/28 02:39:52;;;;;;;27.33;17.48;;;;;;;-147.65;100.00;57646.63;10485844;28;20629;-80
2023/08/28 02:44:53;;;;;;;24.08;18.65;;;;;;;-147.65;100.00;57646.63;10445237;28;20045;-80
2023/08/28 02:49:53;;;;;;;24.58;18.70;;;;;;;-147.65;100.00;57646.63;10463131;28;20480;-81
2023/08/28 02:54:54;;;;;;;33.65;17.80;;;;;;;-147.65;100.00;57646.63;10443304;28;20037;-81
2023/08/28 02:59:54;;;;;;;23.67;16.52;;;;;;;-147.65;100.00;57646.63;10462748;28;20110;-81
2023/08/28 03:04:55;;;;;;;27.20;16.80;;;;;;;-147.65;100.00;57646.63;10447595;28;20084;-81
2023/08/28 03:09:55;;;;;;;30.40;19.38;;;;;;;-147.65;100.00;57646.63;10441097;28;20062;-81
2023/08/28 03:14:56;;;;;;;23.90;14.48;;;;;;;-147.65;100.00;57646.63;10442568;28;20148;-81
2023/08/28 03:19:57;;;;;;;22.33;15.05;;;;;;;-147.65;100.00;57646.63;10445438;28;20507;-81
2023/08/28 03:24:57;;;;;;;22.23;15.00;;;;;;;-147.65;100.00;57646.63;10428248;28;20052;-81
2023/08/28 03:29:58;;;;;;;21.60;16.20;;;;;;;-147.65;100.00;57646.63;10446886;28;20036;-87
2023/08/28 03:34:58;;;;;;;26.27;16.13;;;;;;;-147.65;100.00;57646.63;10432955;28;20057;-81
2023/08/28 03:39:59;;;;;;;22.83;15.52;;;;;;;-147.65;100.00;57646.63;10458242;28;20033;-80
2023/08/28 03:45:00;;;;;;;35.58;21.27;;;;;;;-147.65;100.00;57646.63;10422964;28;20073;-82
2023/08/28 03:50:00;;;;;;;22.60;14.55;;;;;;;-147.65;100.00;57646.63;10453881;28;20049;-79
2023/08/28 03:55:01;;;;;;;22.48;15.50;;;;;;;-147.65;100.00;57646.63;10447978;28;20144;-79
2023/08/28 04:00:05;;;;;;;22.98;16.15;;;;;;;-147.65;100.00;57646.63;10455645;28;20033;-79
2023/08/28 04:05:06;;;;;;;20.92;15.32;;;;;;;-147.65;100.00;57646.63;10438047;28;20069;-81
2023/08/28 04:10:08;;;;;;;30.17;17.27;;;;;;;-147.65;100.00;57646.63;10443289;28;20036;-80
2023/08/28 04:15:09;;;;;;;25.83;16.20;;;;;;;-147.65;100.00;57646.63;10453860;28;20485;-80
2023/08/28 04:20:14;;;;;;;16.33;12.83;;;;;;;-147.65;100.00;57646.63;10456447;28;20045;-80
2023/08/28 04:25:15;;;;;;;26.15;17.33;;;;;;;-147.65;100.00;57646.63;10422205;28;20057;-80
2023/08/28 04:30:16;;;;;;;27.42;18.13;;;;;;;-147.65;100.00;57646.63;10450978;28;20085;-80
2023/08/28 04:35:16;;;;;;;25.08;15.00;;;;;;;-147.65;100.00;57646.63;10459118;28;20512;-80
2023/08/28 04:40:17;;;;;;;23.55;17.75;;;;;;;-147.65;100.00;57646.63;10441456;28;20150;-80
2023/08/28 04:45:17;;;;;;;22.67;17.65;;;;;;;-147.65;100.00;57646.63;10428081;28;20439;-80
2023/08/28 04:50:18;;;;;;;26.48;17.00;;;;;;;-147.65;100.00;57646.63;10494167;28;20408;-77
2023/08/28 04:55:18;;;;;;;24.58;18.02;;;;;;;-147.65;100.00;57646.63;10446592;28;20041;-80
2023/08/28 05:00:19;;;;;;;26.58;17.67;;;;;;;-147.65;100.00;57646.63;10465469;28;20052;-78
2023/08/28 05:05:20;;;;;;;31.35;19.35;;;;;;;-147.65;100.00;57646.63;10438175;28;20465;-77
2023/08/28 05:10:21;;;;;;;34.40;17.48;;;;;;;-147.65;100.00;57646.63;10461473;28;20040;-77
2023/08/28 05:15:21;;;;;;;24.70;15.38;;;;;;;-147.65;100.00;57646.63;10464746;28;20382;-77
2023/08/28 05:20:22;;;;;;;24.77;16.80;;;;;;;-147.65;100.00;57646.63;10457273;28;20033;-78
2023/08/28 05:25:22;;;;;;;23.38;17.15;;;;;;;-147.65;100.00;57646.63;10455306;28;20144;-78
2023/08/28 05:30:23;;;;;;;26.52;16.90;;;;;;;-147.65;100.00;57646.63;10464811;28;20041;-78
2023/08/28 05:35:23;;;;;;;25.20;18.52;;;;;;;-147.65;100.00;57646.63;10457314;28;20048;-79
2023/08/28 05:40:24;;;;;;;22.33;15.82;;;;;;;-147.65;100.00;57646.63;10453911;28;20037;-78
2023/08/28 05:45:24;;;;;;;20.08;13.77;;;;;;;-147.65;100.00;57646.63;10450949;28;20041;-79
2023/08/28 05:50:25;;;;;;;28.33;16.15;;;;;;;-147.65;100.00;57646.63;10457050;28;20055;-79
2023/08/28 05:55:26;;;;;;;21.63;14.65;;;;;;;-147.65;100.00;57646.63;10456371;28;20037;-80
2023/08/28 06:00:28;;;;;;;22.48;13.82;;;;;;;-147.65;100.00;57646.63;10458030;28;20476;-79
2023/08/28 06:05:28;;;;;;;;;;;;;;;-147.65;100.00;57646.63;10470395;28;20376;-80
2023/08/28 06:10:29;;;;;;;20.13;15.48;;;;;;;-147.65;100.00;57646.63;10444849;28;19925;-80
2023/08/28 06:15:29;;;;;;;10.73;8.60;;;;;;;-147.65;100.00;57646.63;10449303;28;20095;-79
2023/08/28 06:20:30;;;;;;;9.85;6.55;;;;;;;-147.65;100.00;57646.63;10409884;28;20523;-79
2023/08/28 06:25:31;;;;;;;6.38;4.00;;;;;;;-147.65;100.00;57646.63;10421932;28;20101;-79
2023/08/28 06:30:31;;;;;;;3.63;2.30;;;;;;;-147.65;100.00;57646.63;10421957;28;20515;-79
2023/08/28 06:35:32;;;;;;;9.13;3.53;;;;;;;-147.65;100.00;57646.63;10418594;28;20046;-80
2023/08/28 06:40:33;;;;;;;9.73;3.93;;;;;;;-147.65;100.00;57646.63;10416588;28;20060;-78
2023/08/28 06:45:33;;;;;;;5.93;3.30;;;;;;;-147.65;100.00;57646.63;10395158;28;20463;-80
2023/08/28 06:50:34;;;;;;;7.53;3.50;;;;;;;-147.65;100.00;57646.63;10420154;28;20033;-80
2023/08/28 06:55:36;;;;;;;7.90;4.80;;;;;;;-147.65;100.00;57646.63;10447765;28;20049;-79
2023/08/28 07:00:36;;;;;;;11.10;4.78;;;;;;;-147.65;100.00;57646.63;10420016;28;20079;-79
2023/08/28 07:05:37;;;;;;;5.17;3.90;;;;;;;-147.65;100.00;57646.63;10452182;28;20079;-79
2023/08/28 07:10:37;;;;;;;6.00;4.40;;;;;;;-147.65;100.00;57646.63;10465419;28;20079;-79
2023/08/28 07:15:41;;;;;;;8.73;3.87;;;;;;;-147.65;100.00;57646.63;10458642;28;20041;-79
2023/08/28 07:20:42;;;;;;;7.57;4.43;;;;;;;-147.65;100.00;57646.63;10452986;28;20135;-79
2023/08/28 07:25:44;;;;;;;11.20;5.35;;;;;;;-147.65;100.00;57646.63;10462574;28;20124;-79
2023/08/28 07:30:44;;;;;;;6.35;4.63;;;;;;;-147.65;100.00;57646.63;10459095;28;20194;-78
2023/08/28 07:35:46;;;;;;;9.57;5.90;;;;;;;-147.65;100.00;57646.63;10471340;28;20089;-78
2023/08/28 07:40:47;;;;;;;7.97;5.85;;;;;;;-147.65;100.00;57646.63;10458894;28;20041;-78
2023/08/28 07:45:47;;;;;;;12.57;5.80;;;;;;;-147.65;100.00;57646.63;10474634;28;20127;-79
2023/08/28 07:50:48;;;;;;;8.30;5.73;;;;;;;-147.65;100.00;57646.63;10463086;28;20037;-78
2023/08/28 07:55:49;;;;;;;10.70;6.67;;;;;;;-147.65;100.00;57646.63;10483084;28;20088;-79
2023/08/28 08:00:49;;;;;;;8.27;5.43;;;;;;;-147.65;100.00;57646.63;10464694;28;20033;-79
2023/08/28 08:05:51;;;;;;;10.20;6.13;;;;;;;-147.65;100.00;57646.63;10478794;28;20372;-79
2023/08/28 08:10:52;;;;;;;11.50;5.65;;;;;;;-147.65;100.00;57646.63;10466962;28;20435;-79
2023/08/28 08:15:52;;;;;;;9.80;6.13;;;;;;;-147.65;100.00;57646.63;10478295;28;20048;-78
2023/08/28 08:20:53;;;;;;;8.50;6.10;;;;;;;-147.65;100.00;57646.63;10461818;28;20037;-78
2023/08/28 08:25:56;;;;;;;16.00;7.10;;;;;;;-147.65;100.00;57646.63;10457653;28;20071;-79
2023/08/28 08:30:57;;;;;;;10.95;7.30;;;;;;;-147.65;100.00;57646.63;10469278;28;20041;-78
2023/08/28 08:35:57;;;;;;;12.48;7.30;;;;;;;-147.65;100.00;57646.63;10481728;28;20036;-78
2023/08/28 08:41:01;;;;;;;11.70;7.93;;;;;;;-147.65;100.00;57646.63;10482588;28;20047;-78
2023/08/28 08:46:05;;;;;;;16.15;7.63;;;;;;;-147.65;100.00;57646.63;10478288;28;20491;-79
2023/08/28 08:51:07;;;;;;;12.98;7.05;;;;;;;-147.65;100.00;57646.63;10474749;28;20037;-78
2023/08/28 08:56:07;;;;;;;11.43;7.50;;;;;;;-147.65;100.00;57646.63;10427285;28;20037;-79
2023/08/28 09:01:08;;;;;;;10.30;7.13;;;;;;;-147.65;100.00;57646.63;10409398;28;20045;-79
2023/08/28 09:06:09;;;;;;;8.30;6.20;;;;;;;-147.65;100.00;57646.63;10424760;28;20086;-80
2023/08/28 09:11:09;;;;;;;9.83;6.47;;;;;;;-147.65;100.00;57646.63;10400456;28;20036;-78
2023/08/28 09:16:10;;;;;;;6.67;5.37;;;;;;;-147.65;100.00;57646.63;10435591;28;20072;-79
2023/08/28 09:21:11;;;;;;;9.87;6.67;;;;;;;-147.65;100.00;57646.63;10421711;28;20389;-80
2023/08/28 09:26:17;;;;;;;12.80;6.97;;;;;;;-147.65;100.00;57646.63;10417228;28;20045;-80
2023/08/28 09:31:27;;;;;;;7.10;4.97;;;;;;;-147.65;100.00;57646.63;10407832;28;20127;-79
2023/08/28 09:36:28;;;;;;;5.22;3.38;;;;;;;-147.65;100.00;57646.63;10448628;28;20044;-80
2023/08/28 09:41:45;;;;;;;7.03;3.53;;;;;;;-147.65;100.00;57646.63;10476279;28;20041;-79
2023/08/28 09:46:46;;;;;;;5.82;2.70;;;;;;;-147.65;100.00;57646.63;10420102;28;20037;-79
2023/08/28 09:51:50;;;;;;;5.30;2.27;;;;;;;-147.65;100.00;57646.63;10430762;28;20045;-79
2023/08/28 09:56:52;;;;;;;5.50;2.72;;;;;;;-147.65;100.00;57646.63;10463264;28;20041;-78
2023/08/28 10:01:53;;;;;;;4.97;2.80;;;;;;;-147.65;100.00;57646.63;10417497;28;20029;-78
2023/08/28 10:06:53;;;;;;;6.90;4.97;;;;;;;-147.65;100.00;57646.63;10434109;28;20497;-77
2023/08/28 10:12:12;;;;;;;5.47;3.72;;;;;;;-147.65;100.00;57646.63;10433616;28;20032;-78
2023/08/28 10:17:31;;;;;;;9.70;3.90;;;;;;;-147.65;100.00;57646.63;10418149;28;20056;-80
2023/08/28 10:22:50;;;;;;;8.10;4.10;;;;;;;-147.65;100.00;57646.63;10427164;28;20065;-80
2023/08/28 10:28:21;;;;;;;5.47;3.40;;;;;;;-147.65;100.00;57646.63;10256072;28;20071;-80
2023/08/28 10:33:40;;;;;;;6.55;4.13;;;;;;;-147.65;100.00;57646.63;10257520;28;20415;-81
2023/08/28 10:39:02;;;;;;;11.02;4.03;;;;;;;-147.65;100.00;57646.63;10439647;28;20040;-81
2023/08/28 10:44:06;;;;;;;9.75;4.10;;;;;;;-147.65;100.00;57646.63;10486632;28;20036;-81
2023/08/28 10:49:07;;;;;;;7.35;3.70;;;;;;;-147.65;100.00;57646.63;10458730;28;20043;-81
2023/08/28 10:54:08;;;;;;;10.53;6.90;;;;;;;-147.65;100.00;57646.63;10472064;28;20441;-81
2023/08/28 10:59:25;;;;;;;7.03;4.00;;;;;;;-147.65;100.00;57646.63;10478207;28;20031;-81
2023/08/28 11:04:33;;;;;;;11.43;4.80;;;;;;;-147.65;100.00;57646.63;10474403;28;20044;-80
2023/08/28 11:09:34;;;;;;;5.80;5.13;;;;;;;-147.65;100.00;57646.63;10421552;28;20091;-81
2023/08/28 11:14:39;;;;;;;6.70;4.67;;;;;;;-147.65;100.00;57646.63;10455696;28;20040;-81
2023/08/28 11:19:53;;;;;;;10.63;6.97;;;;;;;-147.65;100.00;57646.63;10458817;28;20032;-80
2023/08/28 11:24:54;;;;;;;8.55;6.85;;;;;;;-147.65;100.00;57646.63;10456841;28;20047;-80
2023/08/28 11:29:54;;;;;;;6.67;5.77;;;;;;;-147.65;100.00;57646.63;10436139;28;20475;-81
2023/08/28 11:34:58;;;;;;;5.30;4.60;;;;;;;-147.65;100.00;57646.63;10451340;28;20040;-80
2023/08/28 11:39:59;;;;;;;8.20;5.57;;;;;;;-147.65;100.00;57646.63;10456538;28;20046;-80
2023/08/28 11:45:00;;;;;;;6.80;6.20;;;;;;;-147.65;100.00;57646.63;10396328;28;20037;-80
2023/08/28 11:50:03;;;;;;;7.20;4.87;;;;;;;-147.65;100.00;57646.63;10412450;28;20120;-80
2023/08/28 11:55:04;;;;;;;6.60;5.47;;;;;;;-147.65;100.00;57646.63;10411902;28;20044;-80
2023/08/28 12:00:10;;;;;;;16.02;7.13;;;;;;;-147.65;100.00;57646.63;10394554;28;20045;-80
2023/08/28 12:05:11;;;;;;;18.67;5.00;;;;;;;-147.65;100.00;57646.63;10418790;28;20033;-80
2023/08/28 12:10:13;;;;;;;4.70;3.43;;;;;;;-147.65;100.00;57646.63;10433292;28;20117;-80
2023/08/28 12:15:14;;;;;;;5.53;4.88;;;;;;;-147.65;100.00;57646.63;10469980;28;20293;-81
2023/08/28 12:20:19;;;;;;;6.63;4.85;;;;;;;-147.65;100.00;57646.63;10460393;28;20086;-86
2023/08/28 12:25:31;;;;;;;4.93;4.20;;;;;;;-147.65;100.00;57646.63;10462085;28;20142;-84
2023/08/28 12:30:31;;;;;;;;;;;;;;;-147.65;100.00;57646.63;10471504;28;20119;-81
2023/08/28 12:35:38;;;;;;;4.22;3.53;;;;;;;-147.65;100.00;57646.63;10461927;28;19973;-81
2023/08/28 12:40:42;;;;;;;4.28;3.67;;;;;;;-147.65;100.00;57646.63;10454322;28;20037;-81
2023/08/28 12:45:42;;;;;;;4.47;3.55;;;;;;;-147.65;100.00;57646.63;10425546;28;20463;-81
2023/08/28 12:50:43;;;;;;;3.70;3.17;;;;;;;-147.65;100.00;57646.63;10405110;28;20079;-81
2023/08/28 12:55:43;;;;;;;4.97;3.35;;;;;;;-147.65;100.00;57646.63;10399128;28;20036;-82
2023/08/28 13:00:44;;;;;;;7.68;5.43;;;;;;;-147.65;100.00;57646.63;10410800;28;20048;-82
2023/08/28 13:05:44;;;;;;;7.53;6.45;;;;;;;-147.65;100.00;57646.63;10419999;28;20025;-82
2023/08/28 13:10:47;;;;;;;7.57;6.80;;;;;;;-147.65;100.00;57646.63;10423544;28;20051;-84
2023/08/28 13:15:47;;;;;;;8.23;7.43;;;;;;;-147.65;100.00;57646.63;10422666;28;20037;-84
2023/08/28 13:20:48;;;;;;;12.88;9.52;;;;;;;-147.65;100.00;57646.63;10407978;28;20049;-83
2023/08/28 13:25:49;;;;;;;12.17;10.00;;;;;;;-147.65;100.00;57646.63;10421598;28;20037;-83
2023/08/28 13:30:49;;;;;;;13.60;12.25;;;;;;;-147.65;100.00;57646.63;10435376;28;20041;-83
2023/08/28 13:35:50;;;;;;;10.73;9.77;;;;;;;-147.65;100.00;57646.63;10431238;28;20055;-82
2023/08/28 13:40:50;;;;;;;10.88;9.15;;;;;;;-147.65;100.00;57646.63;10441728;28;20037;-82
2023/08/28 13:45:51;;;;;;;9.52;7.70;;;;;;;-147.65;100.00;57646.63;10441150;28;20043;-80
2023/08/28 13:50:51;;;;;;;7.80;7.10;;;;;;;-147.65;100.00;57646.63;10437400;28;20033;-80
2023/08/28 13:55:55;;;;;;;7.72;6.35;;;;;;;-147.65;100.00;57646.63;10425089;28;20409;-80
2023/08/28 14:01:02;;;;;;;7.28;6.57;;;;;;;-147.65;100.00;57646.63;10389469;28;20033;-80
2023/08/28 14:06:03;;;;;;;6.85;6.00;;;;;;;-147.65;100.00;57646.63;10419566;28;20060;-81
2023/08/28 14:11:07;;;;;;;6.70;6.00;;;;;;;-147.65;100.00;57646.63;10415654;28;20040;-82
2023/08/28 14:16:08;;;;;;;9.77;7.55;;;;;;;-147.65;100.00;57646.63;10454527;28;20133;-81
2023/08/28 14:21:08;;;;;;;8.93;5.75;;;;;;;-147.65;100.00;57646.63;10454881;28;20051;-82
2023/08/28 14:26:09;;;;;;;8.43;6.97;;;;;;;-147.65;100.00;57646.63;10465484;28;20049;-83
2023/08/28 14:31:10;;;;;;;6.43;5.43;;;;;;;-147.65;100.00;57646.63;10454186;28;20029;-82
2023/08/28 14:36:10;;;;;;;6.63;4.97;;;;;;;-147.65;100.00;57646.63;10446065;28;20550;-83
2023/08/28 14:41:11;;;;;;;5.00;4.18;;;;;;;-147.65;100.00;57646.63;10453782;28;20045;-83
2023/08/28 14:46:11;;;;;;;4.07;2.95;;;;;;;-147.65;100.00;57646.63;10470092;28;20033;-83
2023/08/28 14:51:12;;;;;;;4.80;3.57;;;;;;;-147.65;100.00;57646.63;10466471;28;20073;-84
2023/08/28 14:56:12;;;;;;;7.60;2.88;;;;;;;-147.65;100.00;57646.63;10467242;28;21230;-83
2023/08/28 15:01:16;;;;;;;5.90;2.13;;;;;;;-147.65;100.00;57646.63;10473910;28;20155;-81
2023/08/28 15:06:16;;;;;;;8.15;2.47;;;;;;;-147.65;100.00;57646.63;10472689;28;20033;-83
2023/08/28 15:11:17;;;;;;;5.38;3.08;;;;;;;-147.65;100.00;57646.63;10466849;28;20567;-82
2023/08/28 15:16:17;;;;;;;5.70;4.63;;;;;;;-147.65;100.00;57646.63;10509618;28;20035;-81
2023/08/28 15:21:18;;;;;;;3.95;2.92;;;;;;;-147.65;100.00;57646.63;10481208;28;20127;-80
2023/08/28 15:26:20;;;;;;;8.63;4.93;;;;;;;-147.65;100.00;57646.63;10481211;28;20060;-79
2023/08/28 15:31:20;;;;;;;9.80;6.20;;;;;;;-147.65;100.00;57646.63;10481082;28;20029;-79
2023/08/28 15:36:21;;;;;;;8.35;6.20;;;;;;;-147.65;100.00;57646.63;10479700;28;20072;-79
2023/08/28 15:41:21;;;;;;;9.18;4.63;;;;;;;-147.65;100.00;57646.63;10444045;28;20083;-80
2023/08/28 15:46:24;;;;;;;7.47;6.05;;;;;;;-147.65;100.00;57646.63;10482988;28;20032;-79
2023/08/28 15:51:24;;;;;;;10.45;4.07;;;;;;;-147.65;100.00;57646.63;10454862;28;20041;-79
2023/08/28 15:56:25;;;;;;;6.90;4.10;;;;;;;-147.65;100.00;57646.63;10485952;28;20058;-79
2023/08/28 16:01:25;;;;;;;6.85;4.30;;;;;;;-147.65;100.00;57646.63;10485366;28;20484;-80
2023/08/28 16:06:26;;;;;;;9.00;3.78;;;;;;;-147.65;100.00;57646.63;10486295;28;20111;-80
2023/08/28 16:11:27;;;;;;;6.00;4.03;;;;;;;-147.65;100.00;57646.63;10488316;28;20107;-79
2023/08/28 16:16:27;;;;;;;5.82;3.17;;;;;;;-147.65;100.00;57646.63;10489001;28;20049;-80
2023/08/28 16:21:28;;;;;;;18.33;4.03;;;;;;;-147.65;100.00;57646.63;10488297;28;20040;-79
2023/08/28 16:26:28;;;;;;;7.22;4.45;;;;;;;-147.65;100.00;57646.63;10465534;28;20039;-79
2023/08/28 16:31:29;;;;;;;4.55;3.53;;;;;;;-147.65;100.00;57646.63;10482488;28;20117;-80
2023/08/28 16:36:30;;;;;;;6.45;4.10;;;;;;;-147.65;100.00;57646.63;10495169;28;20044;-81
2023/08/28 16:41:30;;;;;;;7.47;4.93;;;;;;;-147.65;100.00;57646.63;10486285;28;20110;-79
2023/08/28 16:46:31;;;;;;;6.10;4.65;;;;;;;-147.65;100.00;57646.63;10486142;28;20060;-80
2023/08/28 16:51:32;;;;;;;4.60;3.83;;;;;;;-147.65;100.00;57646.63;10487745;28;20075;-81
2023/08/28 16:56:32;;;;;;;12.20;8.77;;;;;;;-147.65;100.00;57646.63;10480052;28;20033;-81
2023/08/28 17:01:33;;;;;;;6.47;5.38;;;;;;;-147.65;100.00;57646.63;10491199;28;20063;-80
2023/08/28 17:06:33;;;;;;;5.32;3.78;;;;;;;-147.65;100.00;57646.63;10468643;28;20097;-81
2023/08/28 17:11:34;;;;;;;4.40;2.65;;;;;;;-147.65;100.00;57646.63;10472188;28;20033;-79
2023/08/28 17:16:34;;;;;;;4.03;3.08;;;;;;;-147.65;100.00;57646.63;10486648;28;20044;-79
2023/08/28 17:21:35;;;;;;;8.40;3.28;;;;;;;-147.65;100.00;57646.63;10479984;28;20531;-82
2023/08/28 17:26:35;;;;;;;5.25;3.67;;;;;;;-147.65;100.00;57646.63;10449064;28;20058;-79
2023/08/28 17:31:36;;;;;;;4.45;3.15;;;;;;;-147.65;100.00;57646.63;10506182;28;20040;-79
2023/08/28 17:36:37;;;;;;;4.28;2.90;;;;;;;-147.65;100.00;57646.63;10485061;28;20127;-79
2023/08/28 17:41:39;;;;;;;3.93;2.90;;;;;;;-147.65;100.00;57646.63;10490169;28;20063;-79
2023/08/28 17:46:40;;;;;;;5.70;2.97;;;;;;;-147.65;100.00;57646.63;10476711;28;20470;-79
2023/08/28 17:51:40;;;;;;;4.40;3.35;;;;;;;-147.65;100.00;57646.63;10466611;27;20036;-80
2023/08/28 17:56:47;;;;;;;3.80;2.65;;;;;;;-147.65;100.00;57646.63;10481599;28;20442;-80
2023/08/28 18:01:47;;;;;;;8.35;3.38;;;;;;;-147.65;100.00;57646.63;10456426;28;20044;-80
2023/08/28 18:06:48;;;;;;;8.57;3.17;;;;;;;-147.65;100.00;57646.63;10465805;28;20067;-80
2023/08/28 18:11:48;;;;;;;5.68;3.05;;;;;;;-147.65;100.00;57646.63;10481926;28;20123;-80
2023/08/28 18:16:49;;;;;;;5.53;3.17;;;;;;;-147.65;100.00;57646.63;10485701;28;20028;-80
2023/08/28 18:21:49;;;;;;;4.15;2.63;;;;;;;-147.65;100.00;57646.63;10481673;28;20048;-79
2023/08/28 18:26:53;;;;;;;7.65;3.92;;;;;;;-147.65;100.00;57646.63;10483191;28;20043;-79
2023/08/28 18:31:53;;;;;;;3.80;2.20;;;;;;;-147.65;100.00;57646.63;10498892;28;20052;-79
2023/08/28 18:36:54;;;;;;;4.95;2.30;;;;;;;-147.65;100.00;57646.63;10460560;28;20068;-79
2023/08/28 18:41:55;;;;;;;9.18;2.42;;;;;;;-147.65;100.00;57646.63;10497271;28;20048;-80
2023/08/28 18:46:57;;;;;;;4.55;2.55;;;;;;;-147.65;100.00;57646.63;10480979;28;20071;-80
2023/08/28 18:51:58;;;;;;;5.80;4.45;;;;;;;-147.65;100.00;57646.63;10419366;28;20042;-80
2023/08/28 18:56:58;;;;;;;10.60;2.80;;;;;;;-147.65;100.00;57646.63;10449922;28;20380;-80
2023/08/28 19:01:59;;;;;;;5.70;3.75;;;;;;;-147.65;100.00;57646.63;10442676;28;20108;-81
2023/08/28 19:06:59;;;;;;;3.75;2.53;;;;;;;-147.65;100.00;57646.63;10440922;28;20053;-81
2023/08/28 19:12:01;;;;;;;5.47;3.20;;;;;;;-147.65;100.00;57646.63;10441519;28;20135;-81
2023/08/28 19:17:01;;;;;;;4.13;2.63;;;;;;;-147.65;100.00;57646.63;10436838;28;20170;-80
2023/08/28 19:22:02;;;;;;;4.85;2.63;;;;;;;-147.65;100.00;57646.63;10443289;28;20189;-80
2023/08/28 19:27:03;;;;;;;5.43;3.47;;;;;;;-147.65;100.00;57646.63;10449556;28;20057;-80
2023/08/28 19:32:04;;;;;;;6.20;2.80;;;;;;;-147.65;100.00;57646.63;10447209;28;20389;-80
2023/08/28 19:37:04;;;;;;;5.50;3.30;;;;;;;-147.65;100.00;57646.63;10448407;28;20378;-80
2023/08/28 19:42:05;;;;;;;6.85;3.63;;;;;;;-147.65;100.00;57646.63;10449464;28;20037;-80
2023/08/28 19:47:05;;;;;;;10.30;5.90;;;;;;;-147.65;100.00;57646.63;10446919;28;20033;-77
2023/08/28 19:52:08;;;;;;;8.27;4.68;;;;;;;-147.65;100.00;57646.63;10448213;28;20120;-77
2023/08/28 19:57:09;;;;;;;7.97;5.18;;;;;;;-147.65;100.00;57646.63;10448024;28;20041;-77
2023/08/28 20:02:10;;;;;;;12.93;4.25;;;;;;;-147.65;100.00;57646.63;10448606;28;20036;-78
2023/08/28 20:07:11;;;;;;;8.30;5.38;;;;;;;-147.65;100.00;57646.63;10447051;28;20041;-78
2023/08/28 20:12:12;;;;;;;7.25;6.03;;;;;;;-147.65;100.00;57646.63;10426827;28;20049;-77
2023/08/28 20:17:13;;;;;;;10.50;5.72;;;;;;;-147.65;100.00;57646.63;10445160;28;20036;-78
2023/08/28 20:22:15;;;;;;;9.60;6.85;;;;;;;-147.65;100.00;57646.63;10447125;28;20449;-79
2023/08/28 20:27:15;;;;;;;12.45;6.78;;;;;;;-147.65;100.00;57646.63;10442960;28;20057;-79
2023/08/28 20:32:16;;;;;;;14.73;10.00;;;;;;;-147.65;100.00;57646.63;10410801;28;20045;-79
2023/08/28 20:37:16;;;;;;;10.93;8.48;;;;;;;-147.65;100.00;57646.63;10426923;28;20035;-79
2023/08/28 20:42:17;;;;;;;12.02;9.95;;;;;;;-147.65;100.00;57646.63;10447096;28;20048;-79
2023/08/28 20:47:17;;;;;;;12.18;10.15;;;;;;;-147.65;100.00;57646.63;10447436;28;20055;-79
2023/08/28 20:52:18;;;;;;;15.65;11.40;;;;;;;-147.65;100.00;57646.63;10485866;28;20076;-79
2023/08/28 20:57:18;;;;;;;22.10;16.67;;;;;;;-147.65;100.00;57646.63;10488014;28;20029;-79
2023/08/28 21:02:19;;;;;;;17.30;15.10;;;;;;;-147.65;100.00;57646.63;10487061;28;20059;-78
2023/08/28 21:07:22;;;;;;;22.45;16.80;;;;;;;-147.65;100.00;57646.63;10467557;28;20497;-79
2023/08/28 21:12:23;;;;;;;25.85;16.02;;;;;;;-147.65;100.00;57646.63;10462081;28;20094;-78
2023/08/28 21:17:23;;;;;;;23.63;14.07;;;;;;;-147.65;100.00;57646.63;10471950;28;20456;-80
2023/08/28 21:22:24;;;;;;;17.60;14.55;;;;;;;-147.65;100.00;57646.63;10478443;28;20480;-80
2023/08/28 21:27:28;;;;;;;17.25;14.88;;;;;;;-147.65;100.00;57646.63;10439350;28;20371;-80
2023/08/28 21:32:28;;;;;;;17.13;12.25;;;;;;;-147.65;100.00;57646.63;10406497;28;20045;-82
2023/08/28 21:37:29;;;;;;;18.77;14.20;;;;;;;-147.65;100.00;57646.63;10440183;28;20029;-81
2023/08/28 21:42:29;;;;;;;16.60;13.55;;;;;;;-147.65;100.00;57646.63;10434169;28;20732;-80
2023/08/28 21:47:31;;;;;;;19.08;16.25;;;;;;;-147.65;100.00;57646.63;10442848;28;20052;-79
2023/08/28 21:52:32;;;;;;;26.42;19.50;;;;;;;-147.65;100.00;57646.63;10465608;28;20040;-78
2023/08/28 21:57:32;;;;;;;24.50;21.27;;;;;;;-147.65;100.00;57646.63;10452884;28;20049;-79
2023/08/28 22:02:33;;;;;;;20.23;16.25;;;;;;;-147.65;100.00;57646.63;10463171;28;20036;-78
2023/08/28 22:07:34;;;;;;;21.27;16.73;;;;;;;-147.65;100.00;57646.63;10474272;28;20436;-77
2023/08/28 22:12:34;;;;;;;26.38;19.65;;;;;;;-147.65;100.00;57646.63;10455332;28;20051;-77
2023/08/28 22:17:35;;;;;;;26.77;21.08;;;;;;;-147.65;100.00;57646.63;10455773;28;20094;-77
2023/08/28 22:22:36;;;;;;;24.80;21.20;;;;;;;-147.65;100.00;57646.63;10444349;28;20039;-78